createdAt,value
2023-03-25T00:01:14.901Z,99803.47
2023-03-25T00:03:43.115Z,99801.81
2023-03-25T00:06:12.449Z,99802.06
2023-03-25T00:08:39.150Z,99786.84
2023-03-25T00:11:07.021Z,99751.41
2023-03-25T00:13:34.440Z,99798.28
2023-03-25T00:16:01.939Z,99801.38
2023-03-25T00:18:33.871Z,99806.38
2023-03-25T00:21:11.894Z,99770.53
2023-03-25T00:23:41.507Z,99809.25
2023-03-25T00:26:08.887Z,99806.28
2023-03-25T00:28:37.177Z,99802.28
2023-03-25T00:31:11.537Z,99800.97
2023-03-25T00:33:38.273Z,99793.69
2023-03-25T00:36:05.785Z,99787.25
2023-03-25T00:38:35.538Z,99783.75
2023-03-25T00:41:23.271Z,99790.06
2023-03-25T00:43:52.627Z,99730.97
2023-03-25T00:46:19.392Z,99775.19
2023-03-25T00:48:46.185Z,99751.63
2023-03-25T00:51:14.906Z,99794.56
2023-03-25T00:53:41.631Z,99795.09
2023-03-25T00:56:08.214Z,99778.44
2023-03-25T00:58:34.830Z,99716.28
2023-03-25T01:01:01.371Z,99769.31
2023-03-25T01:03:29.302Z,99723.66
2023-03-25T01:05:56.669Z,99779.59
2023-03-25T01:08:25.824Z,99770.13
2023-03-25T01:10:54.395Z,99774.78
2023-03-25T01:13:22.093Z,99635.16
2023-03-25T01:15:49.292Z,99733.69
2023-03-25T01:18:16.396Z,99713.88
2023-03-25T01:20:43.864Z,99774.72
2023-03-25T01:23:10.866Z,99769.63
2023-03-25T01:25:38.058Z,99775.38
2023-03-25T01:28:05.842Z,99783.25
2023-03-25T01:30:32.488Z,99766.88
2023-03-25T01:32:59.162Z,99756.66
2023-03-25T01:35:25.990Z,99762.53
2023-03-25T01:37:54.616Z,99757.09
2023-03-25T01:40:24.366Z,99722.19
2023-03-25T01:42:51.763Z,99683.84
2023-03-25T01:45:30.953Z,99751.84
2023-03-25T01:48:10.509Z,99704.34
2023-03-25T01:53:13.555Z,99751.09
2023-03-25T01:55:40.632Z,99751.34
2023-03-25T01:58:13.058Z,99753.06
2023-03-25T02:00:41.834Z,99742.06
2023-03-25T02:03:09.534Z,99749.34
2023-03-25T02:05:50.417Z,99637.78
2023-03-25T02:08:19.192Z,99668.47
2023-03-25T02:10:47.218Z,99732.44
2023-03-25T02:13:16.289Z,99727.44
2023-03-25T02:16:22.801Z,99726.97
2023-03-25T02:19:14.790Z,99689.16
2023-03-25T02:21:53.589Z,99716.03
2023-03-25T02:24:54.238Z,99719.84
2023-03-25T02:27:34.163Z,99693.09
2023-03-25T02:30:45.581Z,99715.06
2023-03-25T02:33:50.789Z,99712.00
2023-03-25T02:36:36.663Z,99703.22
2023-03-25T02:39:11.687Z,99682.81
2023-03-25T02:41:54.743Z,99710.69
2023-03-25T02:44:33.118Z,99709.41
2023-03-25T02:47:05.048Z,99701.28
2023-03-25T02:49:36.829Z,99613.06
2023-03-25T02:52:17.921Z,99694.63
2023-03-25T02:54:47.727Z,99700.31
2023-03-25T02:57:17.487Z,99635.13
2023-03-25T02:59:46.814Z,99698.84
2023-03-25T03:02:16.138Z,99689.75
2023-03-25T03:04:47.095Z,99680.63
2023-03-25T03:07:23.687Z,99687.22
2023-03-25T03:09:58.676Z,99686.91
2023-03-25T03:13:03.575Z,99683.25
2023-03-25T03:15:41.911Z,99685.03
2023-03-25T03:18:34.634Z,99673.91
2023-03-25T03:21:09.296Z,99683.06
2023-03-25T03:23:56.717Z,99679.66
2023-03-25T03:26:47.925Z,99683.66
2023-03-25T03:29:21.736Z,99674.97
2023-03-25T03:32:07.490Z,99680.53
2023-03-25T03:34:46.510Z,99600.28
2023-03-25T03:37:16.926Z,99685.03
2023-03-25T03:39:47.092Z,99559.38
2023-03-25T03:42:45.295Z,99696.31
2023-03-25T03:45:42.837Z,99683.34
2023-03-25T03:48:15.947Z,99681.03
2023-03-25T03:50:50.668Z,99681.63
2023-03-25T03:53:38.326Z,99508.13
2023-03-25T03:56:22.104Z,99681.88
2023-03-25T03:58:53.328Z,99684.81
2023-03-25T04:01:30.898Z,99680.41
2023-03-25T04:04:04.768Z,99669.50
2023-03-25T04:06:42.066Z,99677.66
2023-03-25T04:09:27.731Z,99592.44
2023-03-25T04:12:00.456Z,99679.13
2023-03-25T04:14:27.223Z,99670.75
2023-03-25T04:16:55.634Z,99680.94
2023-03-25T04:19:22.215Z,99670.09
2023-03-25T04:21:49.291Z,99634.03
2023-03-25T04:24:19.910Z,99646.50
2023-03-25T04:26:47.906Z,99626.47
2023-03-25T04:29:14.665Z,99678.22
2023-03-25T04:31:49.889Z,99635.81
2023-03-25T04:34:16.779Z,99655.94
2023-03-25T04:36:43.777Z,99687.66
2023-03-25T04:39:12.120Z,99692.91
2023-03-25T04:41:39.547Z,99701.97
2023-03-25T04:44:09.339Z,99688.97
2023-03-25T04:46:36.764Z,99624.44
2023-03-25T04:49:14.198Z,98847.06
2023-03-25T04:51:49.631Z,98919.75
2023-03-25T04:54:18.215Z,98788.66
2023-03-25T04:56:45.014Z,97672.63
2023-03-25T04:59:11.720Z,97764.84
2023-03-25T05:01:42.845Z,97598.41
2023-03-25T05:04:12.826Z,96770.50
2023-03-25T05:06:44.941Z,95432.19
2023-03-25T05:09:19.460Z,95061.94
2023-03-25T05:11:46.936Z,95589.72
2023-03-25T05:14:16.005Z,95885.47
2023-03-25T05:16:43.601Z,96371.97
2023-03-25T05:19:10.991Z,96659.88
2023-03-25T05:21:40.019Z,96771.75
2023-03-25T05:24:10.493Z,96833.91
2023-03-25T05:26:39.941Z,96889.53
2023-03-25T05:29:16.258Z,96905.00
2023-03-25T05:31:48.758Z,96992.03
2023-03-25T05:34:17.466Z,97021.38
2023-03-25T05:36:44.664Z,97089.53
2023-03-25T05:39:11.821Z,97101.19
2023-03-25T05:41:41.863Z,97113.91
2023-03-25T05:44:10.435Z,96934.47
2023-03-25T05:46:37.248Z,97011.72
2023-03-25T05:49:03.949Z,97052.22
2023-03-25T05:51:37.788Z,97100.22
2023-03-25T05:54:11.177Z,97214.19
2023-03-25T05:56:38.466Z,97395.66
2023-03-25T05:59:05.321Z,97699.31
2023-03-25T06:01:34.411Z,97607.44
2023-03-25T06:04:03.024Z,97522.19
2023-03-25T06:06:32.458Z,97608.28
2023-03-25T06:08:59.340Z,97633.78
2023-03-25T06:11:26.077Z,97662.69
2023-03-25T06:13:52.849Z,97762.91
2023-03-25T06:16:22.073Z,97829.75
2023-03-25T06:18:51.326Z,97809.03
2023-03-25T06:21:21.043Z,97842.03
2023-03-25T06:23:50.432Z,97865.72
2023-03-25T06:26:18.145Z,97865.78
2023-03-25T06:28:45.091Z,97930.38
2023-03-25T06:31:20.605Z,97984.19
2023-03-25T06:33:49.427Z,97988.25
2023-03-25T06:36:18.899Z,98030.34
2023-03-25T06:38:50.464Z,98055.44
2023-03-25T06:41:21.982Z,98058.94
2023-03-25T06:43:49.153Z,98103.91
2023-03-25T06:46:17.000Z,98101.34
2023-03-25T06:48:43.858Z,98053.44
2023-03-25T06:51:10.582Z,98097.22
2023-03-25T06:53:37.240Z,98111.13
2023-03-25T06:56:04.005Z,98153.97
2023-03-25T06:58:35.422Z,98078.69
2023-03-25T07:01:09.363Z,98145.94
2023-03-25T07:03:37.247Z,98222.16
2023-03-25T07:06:05.620Z,98161.88
2023-03-25T07:08:32.785Z,98163.28
2023-03-25T07:11:03.940Z,98161.22
2023-03-25T07:13:31.436Z,97753.31
2023-03-25T07:15:59.170Z,97798.47
2023-03-25T07:18:28.996Z,97844.53
2023-03-25T07:20:55.843Z,97914.47
2023-03-25T07:23:22.484Z,97864.94
2023-03-25T07:25:49.695Z,97969.75
2023-03-25T07:28:16.590Z,98020.13
2023-03-25T07:30:43.222Z,98091.00
2023-03-25T07:33:09.817Z,98110.34
2023-03-25T07:35:36.733Z,98121.16
2023-03-25T07:38:04.135Z,98167.81
2023-03-25T07:40:31.490Z,98196.78
2023-03-25T07:42:58.096Z,98262.97
2023-03-25T07:45:24.672Z,98348.06
2023-03-25T07:47:51.714Z,98369.50
2023-03-25T07:50:18.943Z,98366.97
2023-03-25T07:52:46.272Z,98390.03
2023-03-25T07:55:13.207Z,98479.63
2023-03-25T07:57:41.066Z,98515.53
2023-03-25T08:00:09.055Z,98607.88
2023-03-25T08:02:35.733Z,98614.75
2023-03-25T08:05:04.765Z,98692.19
2023-03-25T08:07:32.592Z,98746.56
2023-03-25T08:09:59.405Z,98763.63
2023-03-25T08:12:26.158Z,98770.41
2023-03-25T08:14:53.154Z,98765.03
2023-03-25T08:17:19.773Z,98744.91
2023-03-25T08:19:46.386Z,98797.19
2023-03-25T08:22:12.965Z,98810.44
2023-03-25T08:24:39.521Z,98783.50
2023-03-25T08:27:16.129Z,98806.59
2023-03-25T08:29:44.100Z,98792.31
2023-03-25T08:32:11.201Z,98813.63
2023-03-25T08:34:40.306Z,98878.47
2023-03-25T08:37:08.177Z,98876.66
2023-03-25T08:39:39.827Z,98958.47
2023-03-25T08:42:08.308Z,99038.19
2023-03-25T08:44:35.769Z,99046.00
2023-03-25T08:47:02.448Z,98924.53
2023-03-25T08:49:29.140Z,99029.53
2023-03-25T08:51:58.052Z,99036.94
2023-03-25T08:54:28.697Z,99015.34
2023-03-25T08:56:55.848Z,99017.75
2023-03-25T08:59:22.661Z,99018.66
2023-03-25T09:01:49.593Z,98926.47
2023-03-25T09:04:16.434Z,98754.28
2023-03-25T09:06:47.264Z,98726.03
2023-03-25T09:09:16.568Z,98728.84
2023-03-25T09:11:43.214Z,98726.88
2023-03-25T09:14:10.050Z,98694.22
2023-03-25T09:16:36.597Z,98799.63
2023-03-25T09:19:03.863Z,98811.00
2023-03-25T09:21:30.755Z,98844.31
2023-03-25T09:23:57.380Z,98885.03
2023-03-25T09:26:26.216Z,98857.44
2023-03-25T09:28:55.617Z,98817.41
2023-03-25T09:31:23.555Z,98849.19
2023-03-25T09:33:50.241Z,98816.56
2023-03-25T09:36:16.818Z,98808.22
2023-03-25T09:38:43.430Z,98816.22
2023-03-25T09:41:32.846Z,98790.53
2023-03-25T09:44:18.100Z,98850.34
2023-03-25T09:46:44.823Z,98765.50
2023-03-25T09:49:25.385Z,98866.16
2023-03-25T09:51:54.843Z,98885.03
2023-03-25T09:54:32.456Z,98900.75
2023-03-25T09:57:05.053Z,98928.53
2023-03-25T09:59:49.402Z,98921.38
2023-03-25T10:02:41.779Z,98982.63
2023-03-25T10:05:22.239Z,99006.38
2023-03-25T10:08:13.653Z,98998.13
2023-03-25T10:10:56.046Z,99000.72
2023-03-25T10:13:34.518Z,99040.56
2023-03-25T10:16:07.045Z,99089.22
2023-03-25T10:18:45.140Z,99080.34
2023-03-25T10:21:28.952Z,99127.75
2023-03-25T10:24:04.799Z,99181.56
2023-03-25T10:26:41.015Z,99145.66
2023-03-25T10:29:13.603Z,99191.41
2023-03-25T10:31:49.560Z,99114.34
2023-03-25T10:34:24.381Z,99221.81
2023-03-25T10:36:58.011Z,99396.31
2023-03-25T10:39:34.154Z,99442.03
2023-03-25T10:42:11.944Z,99436.75
2023-03-25T10:44:38.632Z,99443.22
2023-03-25T10:47:12.697Z,99358.09
2023-03-25T10:49:41.857Z,99416.56
2023-03-25T10:52:10.027Z,99449.16
2023-03-25T10:54:41.366Z,99464.03
2023-03-25T10:57:18.958Z,99481.56
2023-03-25T10:59:55.788Z,99502.59
2023-03-25T11:02:27.681Z,99478.13
2023-03-25T11:05:00.274Z,99464.63
2023-03-25T11:07:34.356Z,99418.06
2023-03-25T11:10:32.590Z,99490.84
2023-03-25T11:13:03.989Z,99483.69
2023-03-25T11:15:39.019Z,99477.59
2023-03-25T11:18:14.008Z,99394.50
2023-03-25T11:20:48.165Z,98878.19
2023-03-25T11:23:33.172Z,99147.72
2023-03-25T11:26:18.409Z,99275.84
2023-03-25T11:28:48.471Z,99179.06
2023-03-25T11:31:27.509Z,99210.75
2023-03-25T11:34:26.812Z,99237.16
2023-03-25T11:36:59.654Z,99206.75
2023-03-25T11:40:11.255Z,99208.81
2023-03-25T11:42:42.851Z,99223.03
2023-03-25T11:45:22.359Z,99278.25
2023-03-25T11:47:49.458Z,99160.59
2023-03-25T11:50:25.761Z,99313.72
2023-03-25T11:52:56.752Z,99370.25
2023-03-25T11:55:41.802Z,99368.56
2023-03-25T11:58:16.056Z,99428.00
2023-03-25T12:00:47.973Z,99478.69
2023-03-25T12:03:14.692Z,99524.84
2023-03-25T12:05:42.346Z,99531.94
2023-03-25T12:08:17.278Z,99530.19
2023-03-25T12:10:52.293Z,99723.25
2023-03-25T12:13:44.204Z,99773.28
2023-03-25T12:16:44.267Z,99800.47
2023-03-25T12:19:17.374Z,99807.44
2023-03-25T12:22:08.930Z,99826.44
2023-03-25T12:25:04.464Z,99783.38
2023-03-25T12:28:10.510Z,99789.16
2023-03-25T12:31:21.640Z,99781.94
2023-03-25T12:34:20.376Z,99784.44
2023-03-25T12:37:00.155Z,99730.66
2023-03-25T12:39:53.465Z,99781.25
2023-03-25T12:42:30.793Z,99778.38
2023-03-25T12:45:28.100Z,99780.06
2023-03-25T12:48:19.689Z,99751.06
2023-03-25T12:51:01.816Z,99768.03
2023-03-25T12:53:36.360Z,99779.91
2023-03-25T12:56:21.840Z,99733.41
2023-03-25T12:59:02.650Z,99669.19
2023-03-25T13:01:49.569Z,99569.56
2023-03-25T13:04:39.224Z,99673.91
2023-03-25T13:07:11.591Z,99682.81
2023-03-25T13:10:08.928Z,99694.88
2023-03-25T13:12:43.194Z,99663.56
2023-03-25T13:15:47.319Z,99723.06
2023-03-25T13:18:20.065Z,99720.78
2023-03-25T13:20:58.453Z,99712.09
2023-03-25T13:23:27.423Z,99616.97
2023-03-25T13:26:07.291Z,99651.75
2023-03-25T13:28:40.452Z,98377.75
2023-03-25T13:31:11.930Z,97329.63
2023-03-25T13:33:44.542Z,96940.34
2023-03-25T13:36:22.313Z,97030.19
2023-03-25T13:39:22.059Z,97203.81
2023-03-25T13:42:16.396Z,97404.84
2023-03-25T13:44:47.146Z,97509.94
2023-03-25T13:47:19.652Z,97457.41
2023-03-25T13:50:01.840Z,97596.38
2023-03-25T13:52:36.997Z,97836.06
2023-03-25T13:55:14.100Z,97986.91
2023-03-25T13:58:02.313Z,98035.72
2023-03-25T14:00:41.786Z,98091.03
2023-03-25T14:03:30.216Z,98237.25
2023-03-25T14:06:43.408Z,97531.38
2023-03-25T14:09:48.315Z,97937.28
2023-03-25T14:12:23.733Z,97967.78
2023-03-25T14:14:58.391Z,98236.03
2023-03-25T14:17:26.949Z,98365.88
2023-03-25T14:19:58.442Z,98418.34
2023-03-25T14:22:29.941Z,98354.44
2023-03-25T14:24:56.891Z,98351.47
2023-03-25T14:27:37.662Z,98370.81
2023-03-25T14:30:25.020Z,98300.16
2023-03-25T14:32:56.238Z,98374.69
2023-03-25T14:35:31.853Z,98434.22
2023-03-25T14:38:11.627Z,98464.31
2023-03-25T14:40:42.535Z,98429.81
2023-03-25T14:43:38.571Z,98458.03
2023-03-25T14:46:11.054Z,98490.72
2023-03-25T14:48:45.182Z,98455.22
2023-03-25T14:51:26.836Z,98419.47
2023-03-25T14:53:55.565Z,98447.63
2023-03-25T14:56:26.452Z,98497.22
2023-03-25T14:59:00.228Z,98525.13
2023-03-25T15:01:38.824Z,98636.97
2023-03-25T15:04:14.560Z,98704.13
2023-03-25T15:06:42.768Z,98793.22
2023-03-25T15:09:13.181Z,98803.69
2023-03-25T15:11:44.130Z,98773.44
2023-03-25T15:14:19.360Z,98643.09
2023-03-25T15:16:51.323Z,98388.13
2023-03-25T15:19:19.594Z,98437.53
2023-03-25T15:21:58.440Z,98482.84
2023-03-25T15:24:33.533Z,98418.56
2023-03-25T15:27:32.448Z,98447.50
2023-03-25T15:30:30.311Z,97523.06
2023-03-25T15:33:16.984Z,97674.91
2023-03-25T15:36:09.848Z,97758.31
2023-03-25T15:38:54.509Z,97766.09
2023-03-25T15:41:58.836Z,97803.28
2023-03-25T15:44:53.426Z,97873.19
2023-03-25T15:47:20.004Z,97953.66
2023-03-25T15:50:15.225Z,98112.81
2023-03-25T15:53:18.996Z,98172.06
2023-03-25T15:55:55.222Z,98186.03
2023-03-25T15:58:32.469Z,98208.38
2023-03-25T16:01:13.076Z,98203.97
2023-03-25T16:03:41.612Z,98242.41
2023-03-25T16:06:15.135Z,98264.75
2023-03-25T16:08:46.227Z,98390.03
2023-03-25T16:11:25.945Z,98351.94
2023-03-25T16:14:08.533Z,98267.75
2023-03-25T16:16:37.465Z,98293.72
2023-03-25T16:19:05.811Z,98322.78
2023-03-25T16:21:33.197Z,98335.00
2023-03-25T16:24:05.429Z,98381.97
2023-03-25T16:26:44.135Z,98397.69
2023-03-25T16:29:23.036Z,98430.59
2023-03-25T16:31:58.638Z,98449.06
2023-03-25T16:34:27.802Z,98079.66
2023-03-25T16:36:55.820Z,98135.78
2023-03-25T16:39:24.889Z,97905.53
2023-03-25T16:41:59.498Z,97937.00
2023-03-25T16:44:26.846Z,97944.13
2023-03-25T16:46:54.037Z,97837.75
2023-03-25T16:49:27.926Z,97872.00
2023-03-25T16:51:56.578Z,97914.59
2023-03-25T16:54:31.926Z,97673.84
2023-03-25T16:57:00.290Z,97672.84
2023-03-25T16:59:36.405Z,97750.13
2023-03-25T17:02:04.469Z,97825.47
2023-03-25T17:04:44.005Z,97879.34
2023-03-25T17:07:21.088Z,97895.91
2023-03-25T17:09:52.744Z,97878.00
2023-03-25T17:12:21.705Z,97785.53
2023-03-25T17:14:51.450Z,97808.34
2023-03-25T17:17:47.432Z,97775.28
2023-03-25T17:20:35.044Z,97882.88
2023-03-25T17:23:20.783Z,97941.97
2023-03-25T17:25:52.753Z,97806.00
2023-03-25T17:28:34.538Z,97801.34
2023-03-25T17:31:16.433Z,97761.94
2023-03-25T17:33:48.694Z,97760.47
2023-03-25T17:36:17.786Z,97798.91
2023-03-25T17:38:47.474Z,97841.59
2023-03-25T17:41:18.830Z,97877.56
2023-03-25T17:43:54.404Z,97814.72
2023-03-25T17:46:27.075Z,97908.25
2023-03-25T17:48:57.314Z,97906.28
2023-03-25T17:51:26.942Z,97928.97
2023-03-25T17:53:54.426Z,97931.28
2023-03-25T17:56:27.640Z,97940.94
2023-03-25T17:59:13.045Z,97940.34
2023-03-25T18:01:39.973Z,97950.72
2023-03-25T18:04:07.002Z,97962.97
2023-03-25T18:06:33.657Z,97943.34
2023-03-25T18:09:00.918Z,97861.16
2023-03-25T18:11:27.537Z,97824.84
2023-03-25T18:13:54.470Z,97882.16
2023-03-25T18:16:21.991Z,97921.44
2023-03-25T18:18:49.138Z,97973.69
2023-03-25T18:21:17.373Z,97922.31
2023-03-25T18:23:47.796Z,98000.81
2023-03-25T18:26:17.093Z,98026.06
2023-03-25T18:28:44.852Z,98098.44
2023-03-25T18:31:16.764Z,97872.34
2023-03-25T18:33:46.326Z,98053.53
2023-03-25T18:36:13.756Z,98054.00
2023-03-25T18:38:40.862Z,97976.84
2023-03-25T18:41:08.354Z,97900.19
2023-03-25T18:43:34.929Z,97920.22
2023-03-25T18:46:01.614Z,97840.09
2023-03-25T18:48:28.363Z,97299.97
2023-03-25T18:50:57.632Z,96856.00
2023-03-25T18:53:26.824Z,96530.13
2023-03-25T18:55:56.253Z,96717.19
2023-03-25T18:58:25.841Z,96829.06
2023-03-25T19:00:54.041Z,95951.69
2023-03-25T19:03:30.735Z,95744.69
2023-03-25T19:05:59.227Z,95342.59
2023-03-25T19:08:26.444Z,94464.91
2023-03-25T19:10:57.371Z,94613.47
2023-03-25T19:13:28.638Z,95014.81
2023-03-25T19:15:56.013Z,95247.19
2023-03-25T19:18:27.897Z,95509.91
2023-03-25T19:20:55.475Z,95850.53
2023-03-25T19:23:22.401Z,96198.91
2023-03-25T19:25:51.121Z,96380.09
2023-03-25T19:28:20.334Z,96437.38
2023-03-25T19:30:49.232Z,96452.34
2023-03-25T19:33:16.638Z,96440.34
2023-03-25T19:35:50.357Z,96487.09
2023-03-25T19:38:23.042Z,96541.66
2023-03-25T19:40:51.737Z,96611.22
2023-03-25T19:43:18.590Z,96606.16
2023-03-25T19:45:45.430Z,96622.41
2023-03-25T19:48:12.159Z,96698.28
2023-03-25T19:50:40.928Z,95818.00
2023-03-25T19:53:07.877Z,95999.59
2023-03-25T19:55:35.490Z,96237.22
2023-03-25T19:58:02.736Z,95938.50
2023-03-25T20:00:30.610Z,96037.50
2023-03-25T20:02:58.907Z,96187.88
2023-03-25T20:05:25.695Z,96215.22
2023-03-25T20:07:52.793Z,95858.38
2023-03-25T20:10:22.118Z,96054.94
2023-03-25T20:12:49.855Z,96388.31
2023-03-25T20:15:17.974Z,96569.50
2023-03-25T20:17:44.637Z,96501.56
2023-03-25T20:20:13.703Z,96556.66
2023-03-25T20:22:41.340Z,96568.78
2023-03-25T20:25:09.661Z,96512.25
2023-03-25T20:27:36.826Z,96545.13
2023-03-25T20:30:05.930Z,96563.25
2023-03-25T20:32:40.614Z,96556.16
2023-03-25T20:35:10.475Z,96611.09
2023-03-25T20:37:38.839Z,96610.84
2023-03-25T20:40:10.786Z,96655.25
2023-03-25T20:42:39.928Z,96655.84
2023-03-25T20:45:07.122Z,96678.88
2023-03-25T20:47:34.935Z,95424.53
2023-03-25T20:50:01.662Z,95657.63
2023-03-25T20:52:29.062Z,96041.44
2023-03-25T20:54:58.368Z,96283.00
2023-03-25T20:57:25.065Z,96490.41
2023-03-25T20:59:52.993Z,96597.13
2023-03-25T21:02:21.149Z,96612.28
2023-03-25T21:04:48.094Z,96640.94
2023-03-25T21:07:14.829Z,96644.81
2023-03-25T21:09:41.852Z,96720.88
2023-03-25T21:12:08.453Z,96749.88
2023-03-25T21:14:37.864Z,96715.25
2023-03-25T21:17:04.755Z,96688.09
2023-03-25T21:19:31.416Z,96713.41
2023-03-25T21:21:57.974Z,96735.63
2023-03-25T21:24:24.712Z,96753.75
2023-03-25T21:26:51.356Z,96704.63
2023-03-25T21:29:19.219Z,96747.63
2023-03-25T21:31:45.976Z,96772.53
2023-03-25T21:34:16.025Z,96752.88
2023-03-25T21:36:43.462Z,96798.78
2023-03-25T21:39:10.711Z,96832.28
2023-03-25T21:41:37.819Z,96799.00
2023-03-25T21:44:05.552Z,96823.22
2023-03-25T21:46:33.732Z,96865.66
2023-03-25T21:49:02.432Z,96869.66
2023-03-25T21:51:30.966Z,96907.22
2023-03-25T21:53:59.890Z,96889.47
2023-03-25T21:56:30.463Z,96921.75
2023-03-25T21:58:57.831Z,96865.38
2023-03-25T22:01:29.858Z,96917.44
2023-03-25T22:03:58.152Z,96915.56
2023-03-25T22:06:28.375Z,96921.09
2023-03-25T22:08:57.275Z,96932.25
2023-03-25T22:11:31.835Z,96945.06
2023-03-25T22:13:58.522Z,96990.94
2023-03-25T22:16:26.189Z,96961.69
2023-03-25T22:18:53.563Z,96969.13
2023-03-25T22:21:29.747Z,96962.50
2023-03-25T22:23:59.849Z,97000.50
2023-03-25T22:26:28.325Z,96994.72
2023-03-25T22:28:56.860Z,97012.63
2023-03-25T22:31:26.265Z,97007.13
2023-03-25T22:34:02.805Z,97006.28
2023-03-25T22:36:31.210Z,97015.94
2023-03-25T22:38:58.316Z,97016.22
2023-03-25T22:41:25.216Z,97024.78
2023-03-25T22:43:52.262Z,97000.13
2023-03-25T22:46:19.406Z,97014.44
2023-03-25T22:48:46.275Z,97010.56
2023-03-25T22:51:15.696Z,97049.00
2023-03-25T22:53:43.258Z,97059.84
2023-03-25T22:56:11.082Z,97058.44
2023-03-25T22:58:38.630Z,97080.38
2023-03-25T23:01:16.732Z,97092.19
2023-03-25T23:03:43.567Z,96908.81
2023-03-25T23:06:10.474Z,97110.06
2023-03-25T23:08:39.217Z,97148.47
2023-03-25T23:11:16.874Z,97113.66
2023-03-25T23:13:46.791Z,97093.53
2023-03-25T23:16:16.402Z,97129.81
2023-03-25T23:18:43.700Z,97148.06
2023-03-25T23:21:16.333Z,97138.13
2023-03-25T23:23:52.921Z,97141.28
2023-03-25T23:26:24.845Z,97117.44
2023-03-25T23:28:52.478Z,97120.34
2023-03-25T23:31:28.705Z,97099.75
2023-03-25T23:34:00.555Z,97168.84
2023-03-25T23:36:30.309Z,97168.66
2023-03-25T23:38:58.956Z,97173.03
2023-03-25T23:41:26.092Z,97143.50
2023-03-25T23:43:56.081Z,97198.25
2023-03-25T23:46:24.980Z,97201.53
2023-03-25T23:48:54.919Z,97205.69
2023-03-25T23:51:24.802Z,97209.44
2023-03-25T23:53:52.395Z,97217.28
2023-03-25T23:56:21.453Z,97231.69
2023-03-25T23:58:48.117Z,97244.75
